Time;durP1;ratioP1;P1;durP2;ratioP2;P2;SDS_P1;SDS_P2;PMS_P1;PMS_P2;Temp;Humidity;BMP_temperature;BMP_pressure;BME280_temperature;BME280_humidity;BME280_pressure;Samples;Min_cycle;Max_cycle;Signal;HPM_P1;HPM_P2
2021/09/17 00:00:06;;;;;;;75.32;45.15;;;;;;;;;;4332570;33;20237;-83
2021/09/17 00:02:31;;;;;;;73.97;43.17;;;;;;;;;;4345992;33;20179;-83
2021/09/17 00:04:56;;;;;;;62.13;38.05;;;;;;;;;;4346212;33;20154;-83
2021/09/17 00:07:22;;;;;;;77.28;43.87;;;;;;;;;;4345771;33;20154;-82
2021/09/17 00:09:47;;;;;;;75.05;43.33;;;;;;;;;;4346053;33;20162;-82
2021/09/17 00:12:12;;;;;;;76.97;43.58;;;;;;;;;;4331789;33;20155;-83
2021/09/17 00:14:40;;;;;;;73.47;41.22;;;;;;;;;;4332923;33;20163;-82
2021/09/17 00:17:06;;;;;;;79.70;44.03;;;;;;;;;;4345464;33;20576;-82
2021/09/17 00:19:31;;;;;;;81.93;44.80;;;;;;;;;;4345107;33;20127;-82
2021/09/17 00:21:56;;;;;;;83.78;45.45;;;;;;;;;;4345221;33;20154;-83
2021/09/17 00:24:22;;;;;;;81.75;45.70;;;;;;;;;;4345842;33;20158;-82
2021/09/17 00:26:47;;;;;;;66.18;39.33;;;;;;;;;;4345416;33;20206;-82
2021/09/17 00:29:12;;;;;;;77.00;41.40;;;;;;;;;;4345509;33;20144;-82
2021/09/17 00:31:38;;;;;;;74.90;41.78;;;;;;;;;;4345698;33;20556;-82
2021/09/17 00:34:03;;;;;;;77.05;41.60;;;;;;;;;;4345734;33;20150;-83
2021/09/17 00:36:37;;;;;;;72.72;41.00;;;;;;;;;;4345448;33;20178;-82
2021/09/17 00:39:13;;;;;;;79.62;41.63;;;;;;;;;;4345556;33;20132;-82
2021/09/17 00:41:44;;;;;;;76.45;42.97;;;;;;;;;;4345441;33;20135;-82
2021/09/17 00:44:38;;;;;;;;;;;;;;;;;;;;;
2021/09/17 00:47:32;;;;;;;76.75;41.28;;;;;;;;;;4348006;33;20186;-82
2021/09/17 00:50:07;;;;;;;75.18;42.58;;;;;;;;;;4334355;33;20159;-82
2021/09/17 00:52:35;;;;;;;78.35;43.47;;;;;;;;;;4348903;33;20157;-82
2021/09/17 00:55:11;;;;;;;75.05;40.97;;;;;;;;;;4333862;33;20221;-82
2021/09/17 01:00:32;;;;;;;73.87;42.53;;;;;;;;;;4340702;33;20143;-82
2021/09/17 01:03:01;;;;;;;72.32;41.45;;;;;;;;;;4335260;33;20194;-81
2021/09/17 01:08:44;;;;;;;76.43;42.00;;;;;;;;;;4332220;33;20221;-82
2021/09/17 01:13:57;;;;;;;79.82;44.97;;;;;;;;;;4337338;33;20189;-82
2021/09/17 01:16:22;;;;;;;77.37;42.62;;;;;;;;;;4347851;33;20564;-82
2021/09/17 01:18:50;;;;;;;80.70;44.10;;;;;;;;;;4347701;33;20128;-83
2021/09/17 01:21:15;;;;;;;82.45;44.30;;;;;;;;;;4348275;33;20135;-82
2021/09/17 01:23:43;;;;;;;82.40;44.15;;;;;;;;;;4334229;33;20217;-82
2021/09/17 01:26:14;;;;;;;82.05;44.95;;;;;;;;;;4334030;33;20182;-82
2021/09/17 01:28:40;;;;;;;83.50;45.28;;;;;;;;;;4347296;33;20140;-82
2021/09/17 01:31:05;;;;;;;80.80;45.88;;;;;;;;;;4347440;33;20537;-82
2021/09/17 01:33:30;;;;;;;83.37;45.22;;;;;;;;;;4347392;33;20528;-82
2021/09/17 01:35:57;;;;;;;80.20;44.55;;;;;;;;;;4347747;33;20206;-82
2021/09/17 01:38:24;;;;;;;81.93;45.97;;;;;;;;;;4347987;33;20135;-81
2021/09/17 01:40:50;;;;;;;81.97;44.10;;;;;;;;;;4333812;33;20680;-82
2021/09/17 01:43:35;;;;;;;95.35;48.03;;;;;;;;;;4347478;33;20127;-81
2021/09/17 01:46:01;;;;;;;89.40;48.17;;;;;;;;;;4332408;33;20256;-81
2021/09/17 01:48:29;;;;;;;92.57;47.55;;;;;;;;;;4347138;33;20135;-82
2021/09/17 01:50:54;;;;;;;94.22;49.60;;;;;;;;;;4346514;33;20140;-82
2021/09/17 01:53:20;;;;;;;101.62;51.92;;;;;;;;;;4346965;33;20144;-82
2021/09/17 01:55:45;;;;;;;89.70;49.63;;;;;;;;;;4333037;33;20620;-83
2021/09/17 01:58:13;;;;;;;96.35;51.08;;;;;;;;;;4347146;33;20175;-83
2021/09/17 02:00:39;;;;;;;90.70;48.92;;;;;;;;;;4347476;33;20573;-84
2021/09/17 02:03:04;;;;;;;82.32;47.08;;;;;;;;;;4346927;33;20147;-84
2021/09/17 02:05:29;;;;;;;85.07;48.83;;;;;;;;;;4347494;33;20453;-83
2021/09/17 02:07:55;;;;;;;89.57;48.55;;;;;;;;;;4347772;33;20530;-83
2021/09/17 02:10:20;;;;;;;79.62;44.47;;;;;;;;;;4333663;33;20164;-82
2021/09/17 02:12:45;;;;;;;88.20;48.00;;;;;;;;;;4347476;33;20190;-82
2021/09/17 02:15:11;;;;;;;90.65;48.50;;;;;;;;;;4333613;33;20203;-83
2021/09/17 02:17:36;;;;;;;84.93;44.35;;;;;;;;;;4346790;33;20491;-81
2021/09/17 02:20:03;;;;;;;91.87;48.92;;;;;;;;;;4346715;33;20150;-82
2021/09/17 02:22:29;;;;;;;94.93;50.12;;;;;;;;;;4333571;33;20167;-81
2021/09/17 02:25:04;;;;;;;91.55;48.63;;;;;;;;;;4333000;33;20186;-81
2021/09/17 02:27:32;;;;;;;99.28;51.25;;;;;;;;;;4347855;33;20147;-81
2021/09/17 02:29:58;;;;;;;96.37;51.05;;;;;;;;;;4346984;33;20433;-81
2021/09/17 02:32:26;;;;;;;98.25;49.60;;;;;;;;;;4333592;33;20197;-81
2021/09/17 02:34:51;;;;;;;94.22;48.35;;;;;;;;;;4346464;33;20171;-81
2021/09/17 02:37:17;;;;;;;98.80;49.92;;;;;;;;;;4347197;33;20568;-81
2021/09/17 02:39:42;;;;;;;99.03;50.67;;;;;;;;;;4346425;33;20150;-81
2021/09/17 02:42:08;;;;;;;101.45;52.75;;;;;;;;;;4332952;33;20282;-83
2021/09/17 02:44:33;;;;;;;116.22;56.17;;;;;;;;;;4346773;33;20131;-83
2021/09/17 02:46:59;;;;;;;108.95;54.72;;;;;;;;;;4346337;33;20155;-83
2021/09/17 02:49:24;;;;;;;98.07;51.70;;;;;;;;;;4333279;33;20159;-83
2021/09/17 02:51:49;;;;;;;108.30;53.53;;;;;;;;;;4346299;33;20496;-83
2021/09/17 02:54:14;;;;;;;106.50;54.53;;;;;;;;;;4332512;33;20155;-83
2021/09/17 02:56:40;;;;;;;116.55;57.78;;;;;;;;;;4332851;33;20186;-82
2021/09/17 02:59:05;;;;;;;111.78;54.42;;;;;;;;;;4346753;33;20616;-82
2021/09/17 03:01:36;;;;;;;110.07;54.72;;;;;;;;;;4346508;33;20201;-82
2021/09/17 03:04:01;;;;;;;110.15;55.10;;;;;;;;;;4333127;33;20198;-83
2021/09/17 03:06:26;;;;;;;103.47;52.72;;;;;;;;;;4346264;33;20151;-83
2021/09/17 03:08:52;;;;;;;110.25;52.65;;;;;;;;;;4346093;33;20127;-82
2021/09/17 03:11:17;;;;;;;113.28;55.42;;;;;;;;;;4346192;33;20136;-82
2021/09/17 03:13:43;;;;;;;95.60;48.33;;;;;;;;;;4346303;33;20127;-82
2021/09/17 03:16:11;;;;;;;115.97;54.38;;;;;;;;;;4332692;33;20159;-82
2021/09/17 03:18:37;;;;;;;110.75;54.38;;;;;;;;;;4346405;33;20193;-82
2021/09/17 03:21:02;;;;;;;112.15;53.28;;;;;;;;;;4346102;33;20135;-82
2021/09/17 03:23:27;;;;;;;112.22;55.95;;;;;;;;;;4345679;33;20135;-82
2021/09/17 03:25:53;;;;;;;119.75;57.30;;;;;;;;;;4346219;33;20202;-83
2021/09/17 03:28:18;;;;;;;118.15;56.65;;;;;;;;;;4345808;33;20161;-83
2021/09/17 03:30:44;;;;;;;115.03;55.30;;;;;;;;;;4345817;33;20232;-83
2021/09/17 03:33:17;;;;;;;123.72;57.42;;;;;;;;;;4332381;33;20258;-82
2021/09/17 03:35:43;;;;;;;111.25;50.10;;;;;;;;;;4346141;33;20167;-82
2021/09/17 03:38:08;;;;;;;127.68;60.30;;;;;;;;;;4345399;33;20159;-83
2021/09/17 03:40:35;;;;;;;123.28;57.17;;;;;;;;;;4346170;33;20526;-83
2021/09/17 03:43:05;;;;;;;124.82;58.72;;;;;;;;;;4345558;33;20123;-82
2021/09/17 03:45:32;;;;;;;134.87;59.22;;;;;;;;;;4346065;33;20120;-83
2021/09/17 03:48:02;;;;;;;113.60;54.42;;;;;;;;;;4345467;33;20189;-82
2021/09/17 03:50:28;;;;;;;120.57;57.20;;;;;;;;;;4345750;33;20150;-82
2021/09/17 03:52:53;;;;;;;114.47;55.92;;;;;;;;;;4345436;33;20473;-83
2021/09/17 03:55:18;;;;;;;114.75;56.65;;;;;;;;;;4345542;33;20194;-81
2021/09/17 03:57:44;;;;;;;105.80;52.30;;;;;;;;;;4345296;33;20139;-81
2021/09/17 04:00:09;;;;;;;120.70;58.00;;;;;;;;;;4331927;33;20485;-83
2021/09/17 04:02:35;;;;;;;111.03;50.92;;;;;;;;;;4332341;33;20486;-81
2021/09/17 04:05:00;;;;;;;113.18;53.38;;;;;;;;;;4345538;33;20415;-82
2021/09/17 04:07:28;;;;;;;115.97;55.20;;;;;;;;;;4345942;33;20277;-83
2021/09/17 04:09:53;;;;;;;119.95;55.95;;;;;;;;;;4345518;33;20132;-82
2021/09/17 04:12:19;;;;;;;115.07;56.47;;;;;;;;;;4345312;33;20131;-83
2021/09/17 04:14:44;;;;;;;111.72;57.35;;;;;;;;;;4345553;33;20482;-83
2021/09/17 04:17:09;;;;;;;116.47;55.03;;;;;;;;;;4345148;33;20131;-83
2021/09/17 04:19:40;;;;;;;112.50;57.35;;;;;;;;;;4345559;33;20132;-83
2021/09/17 04:22:06;;;;;;;113.30;55.80;;;;;;;;;;4346051;33;20166;-84
2021/09/17 04:24:31;;;;;;;114.95;57.62;;;;;;;;;;4346679;33;20171;-83
2021/09/17 04:26:56;;;;;;;111.47;50.63;;;;;;;;;;4345827;33;20546;-82
2021/09/17 04:29:32;;;;;;;103.78;53.70;;;;;;;;;;4345482;33;20616;-84
2021/09/17 04:31:58;;;;;;;112.20;54.90;;;;;;;;;;4331715;33;20559;-85
2021/09/17 04:34:23;;;;;;;113.45;53.92;;;;;;;;;;4345594;33;20139;-83
2021/09/17 04:36:59;;;;;;;107.00;49.13;;;;;;;;;;4345207;33;20528;-83
2021/09/17 04:39:24;;;;;;;123.43;57.28;;;;;;;;;;4345761;33;20132;-83
2021/09/17 04:41:50;;;;;;;111.10;52.05;;;;;;;;;;4345688;33;20177;-82
2021/09/17 04:44:17;;;;;;;114.88;52.83;;;;;;;;;;4345824;33;20501;-81
2021/09/17 04:46:43;;;;;;;109.95;53.65;;;;;;;;;;4331599;33;20159;-82
2021/09/17 04:49:08;;;;;;;124.57;58.28;;;;;;;;;;4345324;33;20178;-83
2021/09/17 04:51:36;;;;;;;109.95;54.60;;;;;;;;;;4344993;33;20146;-82
2021/09/17 04:54:01;;;;;;;114.53;52.08;;;;;;;;;;4345501;33;20439;-83
2021/09/17 04:56:29;;;;;;;107.93;55.38;;;;;;;;;;4331611;33;20230;-82
2021/09/17 04:58:54;;;;;;;126.25;58.08;;;;;;;;;;4332446;33;20573;-82
2021/09/17 05:01:20;;;;;;;114.88;55.55;;;;;;;;;;4345798;33;20227;-82
2021/09/17 05:03:47;;;;;;;115.07;55.78;;;;;;;;;;4346384;33;20174;-81
2021/09/17 05:06:13;;;;;;;126.62;57.85;;;;;;;;;;4345443;33;20186;-82
2021/09/17 05:08:38;;;;;;;113.60;54.67;;;;;;;;;;4332358;33;20589;-83
2021/09/17 05:11:09;;;;;;;116.15;57.28;;;;;;;;;;4346880;33;20588;-82
2021/09/17 05:13:34;;;;;;;119.15;56.13;;;;;;;;;;4345847;33;20214;-83
2021/09/17 05:15:59;;;;;;;118.20;55.78;;;;;;;;;;4344925;33;20522;-82
2021/09/17 05:18:28;;;;;;;115.12;52.90;;;;;;;;;;4344630;33;20561;-82
2021/09/17 05:20:53;;;;;;;115.62;55.03;;;;;;;;;;4345256;33;20139;-81
2021/09/17 05:23:18;;;;;;;117.18;56.37;;;;;;;;;;4331372;33;20226;-82
2021/09/17 05:25:44;;;;;;;110.68;55.65;;;;;;;;;;4331732;33;20625;-82
2021/09/17 05:28:09;;;;;;;112.47;53.22;;;;;;;;;;4345158;33;20538;-82
2021/09/17 05:30:35;;;;;;;118.53;53.90;;;;;;;;;;4333730;33;20147;-83
2021/09/17 05:33:01;;;;;;;121.22;56.35;;;;;;;;;;4347549;33;20147;-80
2021/09/17 05:35:26;;;;;;;119.07;54.92;;;;;;;;;;4347472;33;20170;-81
2021/09/17 05:37:51;;;;;;;113.20;54.28;;;;;;;;;;4348132;33;20186;-82
2021/09/17 05:40:17;;;;;;;106.40;51.10;;;;;;;;;;4347681;33;20177;-81
2021/09/17 05:42:42;;;;;;;110.03;53.67;;;;;;;;;;4347291;33;20485;-80
2021/09/17 05:45:08;;;;;;;109.07;53.08;;;;;;;;;;4334135;33;20562;-80
2021/09/17 05:47:33;;;;;;;109.93;52.80;;;;;;;;;;4347537;33;20251;-80
2021/09/17 05:49:58;;;;;;;112.22;53.95;;;;;;;;;;4333606;33;20202;-81
2021/09/17 05:52:23;;;;;;;112.50;54.37;;;;;;;;;;4347466;33;20135;-80
2021/09/17 05:54:49;;;;;;;105.05;51.97;;;;;;;;;;4346613;33;20283;-80
2021/09/17 05:57:14;;;;;;;101.00;51.90;;;;;;;;;;4347243;33;20181;-80
2021/09/17 05:59:39;;;;;;;101.30;50.50;;;;;;;;;;4347155;33;20135;-81
2021/09/17 06:02:07;;;;;;;98.45;50.17;;;;;;;;;;4347341;33;20473;-81
2021/09/17 06:04:35;;;;;;;95.75;47.72;;;;;;;;;;4347093;33;20190;-81
2021/09/17 06:07:01;;;;;;;93.75;47.53;;;;;;;;;;4346725;33;20549;-79
2021/09/17 06:09:26;;;;;;;89.15;47.55;;;;;;;;;;4346881;33;20131;-81
2021/09/17 06:11:51;;;;;;;95.93;50.12;;;;;;;;;;4347041;33;20174;-80
2021/09/17 06:14:17;;;;;;;91.57;48.50;;;;;;;;;;4347070;33;20155;-81
2021/09/17 06:16:42;;;;;;;93.80;47.95;;;;;;;;;;4346822;33;20186;-81
2021/09/17 06:19:07;;;;;;;88.57;47.33;;;;;;;;;;4333358;33;20573;-80
2021/09/17 06:21:33;;;;;;;87.65;46.63;;;;;;;;;;4346964;33;20136;-82
2021/09/17 06:23:59;;;;;;;88.57;48.17;;;;;;;;;;4347039;33;20154;-81
2021/09/17 06:26:24;;;;;;;80.90;43.78;;;;;;;;;;4346860;33;20190;-78
2021/09/17 06:28:55;;;;;;;92.93;47.03;;;;;;;;;;4347087;33;20155;-80
2021/09/17 06:31:20;;;;;;;81.82;46.33;;;;;;;;;;4332338;33;20517;-80
2021/09/17 06:33:46;;;;;;;73.40;40.03;;;;;;;;;;4347400;33;20198;-81
2021/09/17 06:36:11;;;;;;;81.25;45.88;;;;;;;;;;4347342;33;20194;-78
2021/09/17 06:38:36;;;;;;;76.12;42.42;;;;;;;;;;4346840;33;20159;-80
2021/09/17 06:41:02;;;;;;;71.10;39.38;;;;;;;;;;4345884;33;20139;-80
2021/09/17 06:43:33;;;;;;;71.12;40.83;;;;;;;;;;4333263;33;20168;-80
2021/09/17 06:45:58;;;;;;;77.75;45.53;;;;;;;;;;4333481;33;20612;-81
2021/09/17 06:48:23;;;;;;;68.70;40.72;;;;;;;;;;4346629;33;20132;-80
2021/09/17 06:50:48;;;;;;;66.45;39.60;;;;;;;;;;4346230;33;20174;-80
2021/09/17 06:53:16;;;;;;;73.40;43.95;;;;;;;;;;4346954;33;20200;-80
2021/09/17 06:55:41;;;;;;;68.68;39.60;;;;;;;;;;4346293;33;20604;-81
2021/09/17 06:58:07;;;;;;;68.10;40.08;;;;;;;;;;4346158;33;20181;-80
2021/09/17 07:00:34;;;;;;;65.57;38.08;;;;;;;;;;4347093;33;20144;-81
2021/09/17 07:03:00;;;;;;;65.05;36.17;;;;;;;;;;4333070;33;20164;-80
2021/09/17 07:05:26;;;;;;;67.80;39.85;;;;;;;;;;4346737;33;20139;-80
2021/09/17 07:07:57;;;;;;;72.87;39.63;;;;;;;;;;4346495;33;20225;-78
2021/09/17 07:10:23;;;;;;;65.78;37.47;;;;;;;;;;4347610;33;20147;-80
2021/09/17 07:12:48;;;;;;;69.00;39.33;;;;;;;;;;4347227;33;20533;-80
2021/09/17 07:15:14;;;;;;;67.32;40.22;;;;;;;;;;4349028;33;20132;-79
2021/09/17 07:17:40;;;;;;;71.22;38.63;;;;;;;;;;4352307;33;20182;-79
2021/09/17 07:20:08;;;;;;;70.65;39.40;;;;;;;;;;4354681;33;20139;-81
2021/09/17 07:22:36;;;;;;;75.05;40.38;;;;;;;;;;4355415;33;20158;-80
2021/09/17 07:25:05;;;;;;;70.55;39.08;;;;;;;;;;4356596;33;20211;-79
2021/09/17 07:27:44;;;;;;;68.12;39.67;;;;;;;;;;4358368;33;20139;-80
2021/09/17 07:30:17;;;;;;;66.22;37.33;;;;;;;;;;4356245;33;20158;-82
2021/09/17 07:32:52;;;;;;;73.15;39.95;;;;;;;;;;4339933;33;20198;-82
2021/09/17 07:35:17;;;;;;;71.28;40.45;;;;;;;;;;4352815;33;20180;-82
2021/09/17 07:37:43;;;;;;;75.90;39.95;;;;;;;;;;4354220;33;20143;-81
2021/09/17 07:40:13;;;;;;;74.78;41.95;;;;;;;;;;4348801;33;20143;-81
2021/09/17 07:42:38;;;;;;;72.62;40.28;;;;;;;;;;4346961;33;20136;-81
2021/09/17 07:45:09;;;;;;;65.65;38.40;;;;;;;;;;4346263;33;20211;-81
2021/09/17 07:47:37;;;;;;;78.20;40.80;;;;;;;;;;4347308;33;20195;-81
2021/09/17 07:50:03;;;;;;;77.32;41.35;;;;;;;;;;4346975;33;20247;-82
2021/09/17 07:52:36;;;;;;;69.18;37.70;;;;;;;;;;4332544;33;20163;-81
2021/09/17 07:55:08;;;;;;;76.80;42.33;;;;;;;;;;4332211;33;20241;-80
2021/09/17 07:57:33;;;;;;;73.12;40.03;;;;;;;;;;4346297;33;20140;-81
2021/09/17 07:59:59;;;;;;;78.12;40.95;;;;;;;;;;4345832;33;20240;-81
2021/09/17 08:02:24;;;;;;;78.80;42.38;;;;;;;;;;4346755;33;20546;-79
2021/09/17 08:04:53;;;;;;;76.87;41.50;;;;;;;;;;4346005;33;20139;-81
2021/09/17 08:07:21;;;;;;;77.28;42.28;;;;;;;;;;4345911;33;20135;-81
2021/09/17 08:09:46;;;;;;;74.87;39.45;;;;;;;;;;4332601;33;20183;-77
2021/09/17 08:12:11;;;;;;;73.07;41.05;;;;;;;;;;4346010;33;20577;-80
2021/09/17 08:14:37;;;;;;;79.95;43.13;;;;;;;;;;4346458;33;20135;-81
2021/09/17 08:17:08;;;;;;;81.28;43.75;;;;;;;;;;4345686;33;20167;-81
2021/09/17 08:19:36;;;;;;;79.12;43.13;;;;;;;;;;4345776;33;20170;-81
2021/09/17 08:22:01;;;;;;;80.82;41.05;;;;;;;;;;4345953;33;20246;-81
2021/09/17 08:24:26;;;;;;;82.97;43.05;;;;;;;;;;4346191;33;20139;-82
2021/09/17 08:26:52;;;;;;;76.85;41.13;;;;;;;;;;4345963;33;20205;-81
2021/09/17 08:29:18;;;;;;;80.12;44.00;;;;;;;;;;4332152;33;20159;-83
2021/09/17 08:31:44;;;;;;;77.18;40.90;;;;;;;;;;4345816;33;20215;-81
2021/09/17 08:34:09;;;;;;;77.25;41.00;;;;;;;;;;4345797;33;20170;-79
2021/09/17 08:36:35;;;;;;;75.30;40.80;;;;;;;;;;4346413;33;20476;-81
2021/09/17 08:39:13;;;;;;;75.00;39.90;;;;;;;;;;4345504;33;20140;-82
2021/09/17 08:41:48;;;;;;;55.28;32.22;;;;;;;;;;4345996;33;20147;-81
2021/09/17 08:44:14;;;;;;;67.97;38.72;;;;;;;;;;4346127;33;20150;-79
2021/09/17 08:46:43;;;;;;;61.55;34.50;;;;;;;;;;4346074;33;20147;-81
2021/09/17 08:49:09;;;;;;;66.12;36.55;;;;;;;;;;4344952;33;20194;-82
2021/09/17 08:51:34;;;;;;;59.80;34.42;;;;;;;;;;4345678;33;20143;-82
2021/09/17 08:54:02;;;;;;;59.05;32.60;;;;;;;;;;4331836;33;20672;-81
2021/09/17 08:56:28;;;;;;;57.72;34.15;;;;;;;;;;4344349;33;20159;-82
2021/09/17 08:58:53;;;;;;;63.35;34.13;;;;;;;;;;4345628;33;20147;-81
2021/09/17 09:01:35;;;;;;;65.07;37.03;;;;;;;;;;4344999;33;20140;-82
2021/09/17 09:04:02;;;;;;;70.37;37.05;;;;;;;;;;4333592;33;20283;-82
2021/09/17 09:06:33;;;;;;;66.50;35.70;;;;;;;;;;4348286;33;20154;-80
2021/09/17 09:09:10;;;;;;;65.43;35.58;;;;;;;;;;4348244;33;20174;-81
2021/09/17 09:11:35;;;;;;;65.90;36.50;;;;;;;;;;4348413;33;20154;-82
2021/09/17 09:14:11;;;;;;;67.50;38.15;;;;;;;;;;4334420;33;20167;-82
2021/09/17 09:16:40;;;;;;;58.42;34.50;;;;;;;;;;4347964;33;20154;-80
2021/09/17 09:19:16;;;;;;;60.65;37.58;;;;;;;;;;4348372;33;20584;-79
2021/09/17 09:21:44;;;;;;;52.15;31.42;;;;;;;;;;4347417;33;20139;-81
2021/09/17 09:24:11;;;;;;;56.47;32.83;;;;;;;;;;4347606;33;20189;-82
2021/09/17 09:26:36;;;;;;;57.15;32.10;;;;;;;;;;4347169;33;20147;-81
2021/09/17 09:32:04;;;;;;;62.50;34.40;;;;;;;;;;4347668;33;20624;-81
2021/09/17 09:34:56;;;;;;;56.22;35.30;;;;;;;;;;4347398;33;20147;-82
2021/09/17 09:37:23;;;;;;;50.97;29.55;;;;;;;;;;4344520;33;20194;-80
2021/09/17 09:39:49;;;;;;;51.70;29.52;;;;;;;;;;4346959;33;20229;-81
2021/09/17 09:42:17;;;;;;;58.65;34.45;;;;;;;;;;4348153;33;20140;-81
2021/09/17 09:45:03;;;;;;;59.00;35.78;;;;;;;;;;4347637;33;20135;-82
2021/09/17 09:47:36;;;;;;;67.25;36.55;;;;;;;;;;4348051;33;20154;-81
2021/09/17 09:50:09;;;;;;;52.45;33.03;;;;;;;;;;4333887;33;20231;-82
2021/09/17 09:52:37;;;;;;;57.00;34.65;;;;;;;;;;4347572;33;20195;-81
2021/09/17 09:55:06;;;;;;;59.95;34.95;;;;;;;;;;4346658;33;20217;-81
2021/09/17 09:57:34;;;;;;;56.05;34.53;;;;;;;;;;4333343;33;20170;-82
2021/09/17 10:00:03;;;;;;;61.20;33.60;;;;;;;;;;4347147;33;20199;-81
2021/09/17 10:02:29;;;;;;;55.75;33.60;;;;;;;;;;4346850;33;20139;-82
2021/09/17 10:04:57;;;;;;;55.92;33.95;;;;;;;;;;4347354;33;20132;-82
2021/09/17 10:07:29;;;;;;;55.97;34.85;;;;;;;;;;4347081;33;20167;-81
2021/09/17 10:09:56;;;;;;;57.58;36.00;;;;;;;;;;4347150;33;20154;-81
2021/09/17 10:12:28;;;;;;;60.00;34.67;;;;;;;;;;4346808;33;20198;-80
2021/09/17 10:14:57;;;;;;;53.95;33.42;;;;;;;;;;4346671;33;20136;-81
2021/09/17 10:17:25;;;;;;;45.08;27.65;;;;;;;;;;4346888;33;20195;-80
2021/09/17 10:19:51;;;;;;;44.47;29.75;;;;;;;;;;4347177;33;20132;-81
2021/09/17 10:22:29;;;;;;;51.58;32.20;;;;;;;;;;4347421;33;20528;-81
2021/09/17 10:25:04;;;;;;;48.45;28.20;;;;;;;;;;4346737;33;20131;-82
2021/09/17 10:27:33;;;;;;;42.92;26.60;;;;;;;;;;4346478;33;20144;-80
2021/09/17 10:29:59;;;;;;;41.97;26.65;;;;;;;;;;4333397;33;20250;-81
2021/09/17 10:32:27;;;;;;;42.60;25.92;;;;;;;;;;4346581;33;20132;-80
2021/09/17 10:34:58;;;;;;;40.97;27.73;;;;;;;;;;4346876;33;20163;-83
2021/09/17 10:37:43;;;;;;;35.88;24.40;;;;;;;;;;4333005;33;20174;-81
2021/09/17 10:40:11;;;;;;;35.33;22.20;;;;;;;;;;4347057;33;20135;-81
2021/09/17 10:42:37;;;;;;;35.78;23.17;;;;;;;;;;4346863;33;20247;-83
2021/09/17 10:45:02;;;;;;;34.90;24.25;;;;;;;;;;4346599;33;20139;-81
2021/09/17 10:47:39;;;;;;;37.15;24.87;;;;;;;;;;4346566;33;20185;-80
2021/09/17 10:50:05;;;;;;;35.70;24.35;;;;;;;;;;4346390;33;20135;-80
2021/09/17 10:52:43;;;;;;;31.40;22.75;;;;;;;;;;4346405;33;20549;-80
2021/09/17 10:55:29;;;;;;;36.13;23.35;;;;;;;;;;4346204;33;20190;-80
2021/09/17 10:58:16;;;;;;;30.73;22.25;;;;;;;;;;4332369;33;20274;-81
2021/09/17 11:01:01;;;;;;;24.45;16.52;;;;;;;;;;4346325;33;20143;-81
2021/09/17 11:03:38;;;;;;;19.37;13.20;;;;;;;;;;4346509;33;20154;-81
2021/09/17 11:06:28;;;;;;;16.75;11.05;;;;;;;;;;4346528;33;20599;-82
2021/09/17 11:08:54;;;;;;;14.77;10.50;;;;;;;;;;4345805;33;20181;-81
2021/09/17 11:11:31;;;;;;;15.43;11.25;;;;;;;;;;4345962;33;20581;-81
2021/09/17 11:14:01;;;;;;;20.05;12.23;;;;;;;;;;4346252;33;20202;-80
2021/09/17 11:16:30;;;;;;;18.48;12.48;;;;;;;;;;4345393;33;20214;-81
2021/09/17 11:19:05;;;;;;;18.67;13.10;;;;;;;;;;4332674;33;20166;-80
2021/09/17 11:21:35;;;;;;;14.98;11.30;;;;;;;;;;4346353;33;20206;-81
2021/09/17 11:24:00;;;;;;;16.67;12.23;;;;;;;;;;4332237;33;20187;-83
2021/09/17 11:26:30;;;;;;;11.57;9.82;;;;;;;;;;4332142;33;20237;-81
2021/09/17 11:29:05;;;;;;;19.45;12.60;;;;;;;;;;4332373;33;20225;-81
2021/09/17 11:31:34;;;;;;;14.27;11.38;;;;;;;;;;4346094;33;20140;-80
2021/09/17 11:34:00;;;;;;;15.15;12.32;;;;;;;;;;4345841;33;20158;-82
2021/09/17 11:36:38;;;;;;;15.45;10.82;;;;;;;;;;4332084;33;20488;-82
2021/09/17 11:39:26;;;;;;;18.27;11.80;;;;;;;;;;4345761;33;20147;-80
2021/09/17 11:42:09;;;;;;;13.95;10.18;;;;;;;;;;4332845;33;20187;-82
2021/09/17 11:44:39;;;;;;;16.62;11.63;;;;;;;;;;4345167;33;20148;-83
2021/09/17 11:47:06;;;;;;;16.52;10.90;;;;;;;;;;4345563;33;20633;-80
2021/09/17 11:49:39;;;;;;;14.27;10.80;;;;;;;;;;4331924;33;20171;-82
2021/09/17 11:52:11;;;;;;;13.77;9.40;;;;;;;;;;4346170;33;20135;-81
2021/09/17 11:54:37;;;;;;;9.63;7.00;;;;;;;;;;4345684;33;20182;-80
2021/09/17 11:57:04;;;;;;;8.55;6.68;;;;;;;;;;4345178;33;20249;-80
2021/09/17 11:59:37;;;;;;;9.23;6.87;;;;;;;;;;4344854;33;20147;-81
2021/09/17 12:02:14;;;;;;;11.02;5.47;;;;;;;;;;4345040;33;20520;-81
2021/09/17 12:04:40;;;;;;;7.40;5.82;;;;;;;;;;4345518;33;20143;-82
2021/09/17 12:07:06;;;;;;;10.38;5.85;;;;;;;;;;4331607;33;20210;-81
2021/09/17 12:09:31;;;;;;;10.40;6.00;;;;;;;;;;4345492;33;20185;-81
2021/09/17 12:12:04;;;;;;;11.30;6.10;;;;;;;;;;4346312;33;20458;-81
2021/09/17 12:14:29;;;;;;;7.72;5.43;;;;;;;;;;4346372;33;20546;-81
2021/09/17 12:17:02;;;;;;;9.10;5.57;;;;;;;;;;4345321;33;20170;-81
2021/09/17 12:19:28;;;;;;;4.95;4.12;;;;;;;;;;4332691;33;20159;-81
2021/09/17 12:22:03;;;;;;;6.22;4.25;;;;;;;;;;4344853;33;20144;-82
2021/09/17 12:24:28;;;;;;;4.55;3.12;;;;;;;;;;4345095;33;20134;-80
2021/09/17 12:26:54;;;;;;;4.30;2.58;;;;;;;;;;4345976;33;20190;-80
2021/09/17 12:29:20;;;;;;;4.53;2.95;;;;;;;;;;4345046;33;20182;-80
2021/09/17 12:31:45;;;;;;;4.62;2.40;;;;;;;;;;4345735;33;20139;-81
2021/09/17 12:34:16;;;;;;;3.58;2.33;;;;;;;;;;4345528;33;20131;-78
2021/09/17 12:36:42;;;;;;;4.80;2.53;;;;;;;;;;4331894;33;20171;-80
2021/09/17 12:39:08;;;;;;;5.95;3.00;;;;;;;;;;4346504;33;20181;-81
2021/09/17 12:41:34;;;;;;;4.45;2.62;;;;;;;;;;4347869;33;20139;-81
2021/09/17 12:44:09;;;;;;;2.58;2.22;;;;;;;;;;4348790;33;20182;-81
2021/09/17 12:46:35;;;;;;;3.53;2.30;;;;;;;;;;4348372;33;20189;-82
2021/09/17 12:49:02;;;;;;;4.57;2.45;;;;;;;;;;4348910;33;20144;-81
2021/09/17 12:51:28;;;;;;;4.82;2.45;;;;;;;;;;4348091;33;20139;-81
2021/09/17 12:53:58;;;;;;;4.12;2.40;;;;;;;;;;4347981;33;20193;-82
2021/09/17 12:56:27;;;;;;;3.00;2.00;;;;;;;;;;4347560;33;20151;-81
2021/09/17 12:59:08;;;;;;;3.58;2.03;;;;;;;;;;4347770;33;20178;-81
2021/09/17 13:01:52;;;;;;;3.15;2.10;;;;;;;;;;4347947;33;20174;-81
2021/09/17 13:04:19;;;;;;;3.20;1.98;;;;;;;;;;4333482;33;20191;-82
2021/09/17 13:06:46;;;;;;;4.12;2.33;;;;;;;;;;4333667;33;20194;-81
2021/09/17 13:09:11;;;;;;;3.62;1.90;;;;;;;;;;4347682;33;20131;-81
2021/09/17 13:11:36;;;;;;;3.17;2.40;;;;;;;;;;4348222;33;20229;-81
2021/09/17 13:14:02;;;;;;;3.03;2.65;;;;;;;;;;4347331;33;20509;-81
2021/09/17 13:16:27;;;;;;;4.20;3.40;;;;;;;;;;4347765;33;20163;-82
2021/09/17 13:19:03;;;;;;;6.25;2.85;;;;;;;;;;4347250;33;20217;-81
2021/09/17 13:21:29;;;;;;;4.82;3.08;;;;;;;;;;4348387;33;20211;-82
2021/09/17 13:23:54;;;;;;;4.03;2.70;;;;;;;;;;4334932;33;20238;-81
2021/09/17 13:26:22;;;;;;;5.28;3.25;;;;;;;;;;4347453;33;20583;-82
2021/09/17 13:28:57;;;;;;;4.72;3.10;;;;;;;;;;4334245;33;20470;-81
2021/09/17 13:31:22;;;;;;;5.90;3.03;;;;;;;;;;4347802;33;20662;-79
2021/09/17 13:33:47;;;;;;;5.53;2.80;;;;;;;;;;4347624;33;20148;-78
2021/09/17 13:36:12;;;;;;;4.55;2.70;;;;;;;;;;4347295;33;20151;-81
2021/09/17 13:38:37;;;;;;;3.97;2.80;;;;;;;;;;4347070;33;20205;-80
2021/09/17 13:41:03;;;;;;;5.95;3.00;;;;;;;;;;4347090;33;20162;-81
2021/09/17 13:43:28;;;;;;;4.28;2.72;;;;;;;;;;4347713;33;20167;-80
2021/09/17 13:45:53;;;;;;;5.07;2.45;;;;;;;;;;4347277;33;20136;-81
2021/09/17 13:48:19;;;;;;;4.40;3.00;;;;;;;;;;4333941;33;20193;-80
2021/09/17 13:50:44;;;;;;;5.57;2.80;;;;;;;;;;4346536;33;20723;-78
2021/09/17 13:53:10;;;;;;;6.18;3.10;;;;;;;;;;4346942;33;20159;-81
2021/09/17 13:55:38;;;;;;;3.75;2.65;;;;;;;;;;4346835;33;20227;-81
2021/09/17 13:58:03;;;;;;;3.15;2.55;;;;;;;;;;4346617;33;20175;-79
2021/09/17 14:00:29;;;;;;;3.80;2.72;;;;;;;;;;4347071;33;20246;-82
2021/09/17 14:03:00;;;;;;;5.28;3.15;;;;;;;;;;4347206;33;20162;-83
2021/09/17 14:05:26;;;;;;;5.80;3.50;;;;;;;;;;4347183;33;20588;-81
2021/09/17 14:07:51;;;;;;;4.05;2.80;;;;;;;;;;4348045;33;20523;-79
2021/09/17 14:10:17;;;;;;;8.23;3.87;;;;;;;;;;4333669;33;20171;-79
2021/09/17 14:12:42;;;;;;;4.70;3.12;;;;;;;;;;4347079;33;20183;-81
2021/09/17 14:15:08;;;;;;;5.03;3.90;;;;;;;;;;4347097;33;20139;-77
2021/09/17 14:17:33;;;;;;;6.37;3.58;;;;;;;;;;4346573;33;20167;-81
2021/09/17 14:19:59;;;;;;;6.53;3.50;;;;;;;;;;4347310;33;20131;-79
2021/09/17 14:22:27;;;;;;;6.12;4.37;;;;;;;;;;4332785;33;20171;-82
2021/09/17 14:24:52;;;;;;;4.57;3.58;;;;;;;;;;4346649;33;20172;-81
2021/09/17 14:27:20;;;;;;;4.62;3.30;;;;;;;;;;4333133;33;20213;-80
2021/09/17 14:29:48;;;;;;;6.68;3.17;;;;;;;;;;4346598;33;20136;-82
2021/09/17 14:32:23;;;;;;;9.90;4.10;;;;;;;;;;4346135;33;20144;-81
2021/09/17 14:34:48;;;;;;;5.47;3.97;;;;;;;;;;4346517;33;20136;-78
2021/09/17 14:37:13;;;;;;;5.05;3.60;;;;;;;;;;4333176;33;20190;-77